Time;durP1;ratioP1;P1;durP2;ratioP2;P2;SDS_P1;SDS_P2;PMS_P1;PMS_P2;Temp;Humidity;BMP_temperature;BMP_pressure;BME280_temperature;BME280_humidity;BME280_pressure;Samples;Min_cycle;Max_cycle;Signal;HPM_P1;HPM_P2
2022/01/14 00:00:44;;;;;;;24.92;19.50;;;1.10;99.90;;;;;;5037317;28;20196;-83
2022/01/14 00:03:11;;;;;;;24.92;19.75;;;1.10;99.90;;;;;;5034228;28;20213;-83
2022/01/14 00:05:38;;;;;;;24.33;20.52;;;1.10;99.90;;;;;;5027574;28;20705;-83
2022/01/14 00:08:05;;;;;;;22.60;18.95;;;1.10;99.90;;;;;;5024863;28;20206;-83
2022/01/14 00:10:35;;;;;;;28.63;19.17;;;1.10;99.90;;;;;;5038940;28;20713;-83
2022/01/14 00:13:13;;;;;;;24.70;20.00;;;1.00;99.90;;;;;;5022775;28;20561;-83
2022/01/14 00:15:40;;;;;;;25.58;21.42;;;1.00;99.90;;;;;;5027069;28;20236;-83
2022/01/14 00:18:06;;;;;;;26.25;19.85;;;1.00;99.90;;;;;;5028068;28;20203;-83
2022/01/14 00:20:33;;;;;;;27.55;20.73;;;1.00;99.90;;;;;;5024014;28;20200;-83
2022/01/14 00:23:00;;;;;;;27.08;19.60;;;0.90;99.90;;;;;;5029755;28;20206;-82
2022/01/14 00:33:41;;;;;;;26.63;17.10;;;0.80;99.90;;;;;;5027758;28;20671;-82
2022/01/14 00:36:08;;;;;;;24.58;16.85;;;0.80;99.90;;;;;;5019732;28;20235;-82
2022/01/14 00:38:35;;;;;;;19.55;17.40;;;0.80;99.90;;;;;;5020004;28;20662;-81
2022/01/14 00:41:01;;;;;;;21.42;17.90;;;0.80;99.90;;;;;;5019140;28;20216;-82
2022/01/14 00:43:30;;;;;;;19.05;16.63;;;0.80;99.90;;;;;;5038571;28;20199;-83
2022/01/14 00:45:56;;;;;;;24.23;16.58;;;0.80;99.90;;;;;;5031837;28;20227;-82
2022/01/14 00:48:23;;;;;;;26.48;16.95;;;0.80;99.90;;;;;;5023410;28;20692;-82
2022/01/14 00:50:50;;;;;;;24.75;16.90;;;0.90;99.90;;;;;;5018956;28;20227;-83
2022/01/14 00:53:16;;;;;;;21.65;17.95;;;0.90;99.90;;;;;;5024090;28;20200;-83
2022/01/14 00:55:52;;;;;;;25.23;16.45;;;0.90;99.90;;;;;;5019036;28;20713;-82
2022/01/14 01:01:04;;;;;;;21.80;17.65;;;0.90;99.90;;;;;;5021759;28;20281;-82
2022/01/14 01:03:32;;;;;;;22.30;16.63;;;0.90;99.90;;;;;;5033414;28;20574;-82
2022/01/14 01:05:59;;;;;;;27.40;19.25;;;0.90;99.90;;;;;;5019456;28;20299;-82
2022/01/14 01:08:27;;;;;;;26.50;18.67;;;0.90;99.90;;;;;;5028767;28;20204;-83
2022/01/14 01:10:54;;;;;;;23.95;17.20;;;0.90;99.90;;;;;;5038199;28;20254;-83
2022/01/14 01:13:24;;;;;;;26.33;17.30;;;0.90;99.90;;;;;;5022762;28;20207;-82
2022/01/14 01:15:53;;;;;;;22.60;16.10;;;1.00;99.90;;;;;;5042839;23;20231;-80
2022/01/14 01:18:22;;;;;;;24.20;17.70;;;0.90;99.90;;;;;;5019245;28;20271;-80
2022/01/14 01:20:49;;;;;;;27.20;16.92;;;1.00;99.90;;;;;;5018647;28;20199;-80
2022/01/14 01:23:16;;;;;;;20.02;16.58;;;0.90;99.90;;;;;;5019727;28;20206;-80
2022/01/14 01:25:47;;;;;;;23.10;18.75;;;0.90;99.90;;;;;;5023460;28;20237;-80
2022/01/14 01:28:14;;;;;;;24.30;17.58;;;0.90;99.90;;;;;;5012205;28;20218;-80
2022/01/14 01:31:03;;;;;;;27.83;21.02;;;0.90;99.90;;;;;;5018118;28;20512;-80
2022/01/14 01:33:31;;;;;;;22.45;16.77;;;0.90;99.90;;;;;;5008592;28;20203;-80
2022/01/14 01:35:58;;;;;;;22.38;16.58;;;0.90;99.90;;;;;;5018015;28;20230;-80
2022/01/14 01:38:25;;;;;;;21.77;16.73;;;0.90;99.90;;;;;;5018682;28;20203;-82
2022/01/14 01:40:52;;;;;;;23.30;18.15;;;0.90;99.90;;;;;;5018161;28;20199;-80
2022/01/14 01:43:21;;;;;;;21.85;15.82;;;0.90;99.90;;;;;;5018580;28;20239;-80
2022/01/14 01:45:50;;;;;;;24.58;17.77;;;0.90;99.90;;;;;;5018157;28;20273;-80
2022/01/14 01:48:17;;;;;;;26.90;17.48;;;0.90;99.90;;;;;;5018310;28;20207;-80
2022/01/14 01:50:45;;;;;;;29.23;19.52;;;0.90;99.90;;;;;;5018071;28;20225;-80
2022/01/14 01:53:12;;;;;;;25.73;19.85;;;0.90;99.90;;;;;;5017973;28;20195;-80
2022/01/14 01:55:39;;;;;;;22.90;19.80;;;0.90;99.90;;;;;;5017891;28;20218;-80
2022/01/14 01:58:05;;;;;;;21.98;19.70;;;0.90;99.90;;;;;;5017832;28;20214;-80
2022/01/14 02:00:32;;;;;;;24.67;17.85;;;0.90;99.90;;;;;;5017452;28;20200;-80
2022/01/14 02:03:00;;;;;;;25.10;17.88;;;1.00;99.90;;;;;;5017578;28;20237;-80
2022/01/14 02:05:27;;;;;;;23.40;17.45;;;0.90;99.90;;;;;;5020756;28;20214;-80
2022/01/14 02:07:55;;;;;;;22.52;19.40;;;0.90;99.90;;;;;;5030409;28;20230;-80
2022/01/14 02:10:22;;;;;;;23.30;19.38;;;1.00;99.90;;;;;;5028965;28;20644;-80
2022/01/14 02:12:52;;;;;;;25.40;18.15;;;1.00;99.90;;;;;;5017819;28;20203;-80
2022/01/14 02:15:43;;;;;;;23.75;18.08;;;1.00;99.90;;;;;;5017996;28;20799;-80
2022/01/14 02:23:45;;;;;;;22.90;17.45;;;1.00;99.90;;;;;;5021365;28;20630;-80
2022/01/14 02:26:12;;;;;;;28.67;17.77;;;0.90;99.90;;;;;;5037620;28;20313;-80
2022/01/14 02:28:39;;;;;;;22.88;17.70;;;0.90;99.90;;;;;;5037238;28;20214;-80
2022/01/14 02:31:06;;;;;;;27.00;18.80;;;0.90;99.90;;;;;;5036811;28;20223;-80
2022/01/14 02:33:33;;;;;;;23.77;16.90;;;0.90;99.90;;;;;;5037013;28;20199;-80
2022/01/14 02:36:02;;;;;;;27.45;19.60;;;0.90;99.90;;;;;;5037587;28;20571;-80
2022/01/14 02:38:29;;;;;;;25.70;20.42;;;0.90;99.90;;;;;;5036913;28;20585;-80
2022/01/14 02:40:57;;;;;;;34.05;20.42;;;0.90;99.90;;;;;;5036212;28;20196;-80
2022/01/14 02:43:25;;;;;;;26.75;18.23;;;0.90;99.90;;;;;;5036758;28;20202;-80
2022/01/14 02:45:55;;;;;;;24.80;20.95;;;0.80;99.90;;;;;;5037119;28;20231;-80
2022/01/14 02:48:23;;;;;;;23.20;19.00;;;0.80;99.90;;;;;;5036951;28;20579;-80
2022/01/14 02:50:59;;;;;;;25.60;19.92;;;0.70;99.90;;;;;;5036515;28;20219;-80
2022/01/14 02:53:41;;;;;;;28.25;20.38;;;0.70;99.90;;;;;;5036848;28;20537;-80
2022/01/14 02:56:11;;;;;;;29.73;17.90;;;0.60;99.90;;;;;;5036522;28;20246;-80
2022/01/14 02:58:41;;;;;;;25.63;18.45;;;0.50;99.90;;;;;;5037187;28;20209;-80
2022/01/14 03:01:10;;;;;;;25.70;20.35;;;0.40;99.90;;;;;;5036432;28;20668;-80
2022/01/14 03:03:38;;;;;;;27.73;18.05;;;0.40;99.90;;;;;;5036692;28;20637;-81
2022/01/14 03:06:06;;;;;;;23.13;18.05;;;0.40;99.90;;;;;;5036831;28;20222;-80
2022/01/14 03:08:35;;;;;;;28.13;18.67;;;0.30;99.90;;;;;;5036816;28;20209;-80
2022/01/14 03:11:07;;;;;;;23.08;18.40;;;0.30;99.90;;;;;;5036462;28;20229;-80
2022/01/14 03:13:35;;;;;;;22.27;18.95;;;0.30;99.90;;;;;;5036756;28;20199;-80
2022/01/14 03:16:02;;;;;;;27.83;18.33;;;0.40;99.90;;;;;;5036113;28;20259;-80
2022/01/14 03:18:34;;;;;;;20.50;17.50;;;0.30;99.90;;;;;;5036607;28;20203;-80
2022/01/14 03:21:09;;;;;;;30.42;17.33;;;0.30;99.90;;;;;;5020971;28;20198;-80
2022/01/14 03:23:44;;;;;;;19.25;15.65;;;0.20;99.90;;;;;;5036246;28;20222;-80
2022/01/14 03:26:11;;;;;;;22.27;16.58;;;0.20;99.90;;;;;;5036918;28;20593;-80
2022/01/14 03:28:38;;;;;;;27.40;18.35;;;0.20;99.90;;;;;;5036397;28;20293;-81
2022/01/14 03:31:05;;;;;;;23.08;17.05;;;0.30;99.90;;;;;;5036023;28;20595;-80
2022/01/14 03:33:32;;;;;;;23.48;17.10;;;0.30;99.90;;;;;;5036247;28;20202;-80
2022/01/14 03:35:58;;;;;;;28.35;20.63;;;0.30;99.90;;;;;;5035927;28;20234;-80
2022/01/14 03:38:25;;;;;;;26.10;18.65;;;0.30;99.90;;;;;;5036129;28;20198;-80
2022/01/14 03:40:53;;;;;;;23.95;17.52;;;0.30;99.90;;;;;;5036025;28;20203;-80
2022/01/14 03:43:20;;;;;;;34.30;20.05;;;0.20;99.90;;;;;;5036431;28;20202;-80
2022/01/14 03:45:49;;;;;;;24.70;17.08;;;0.30;99.90;;;;;;5035998;28;20229;-80
2022/01/14 03:48:16;;;;;;;25.33;19.63;;;0.30;99.90;;;;;;5036182;28;20253;-80
2022/01/14 03:50:43;;;;;;;26.95;18.58;;;0.20;99.90;;;;;;5036315;28;20234;-80
2022/01/14 03:53:11;;;;;;;25.27;19.65;;;0.30;99.90;;;;;;5038923;28;20199;-80
2022/01/14 03:55:38;;;;;;;26.52;18.70;;;0.30;99.90;;;;;;5039988;28;20640;-80
2022/01/14 03:58:07;;;;;;;22.30;17.45;;;0.30;99.90;;;;;;5040657;28;20202;-80
2022/01/14 04:00:33;;;;;;;27.23;19.27;;;0.30;99.90;;;;;;5028839;28;20202;-80
2022/01/14 04:03:00;;;;;;;25.38;18.67;;;0.30;99.90;;;;;;5041653;28;20237;-80
2022/01/14 04:05:27;;;;;;;23.92;16.90;;;0.30;99.90;;;;;;5040458;28;20222;-80
2022/01/14 04:07:54;;;;;;;25.50;18.33;;;0.30;99.90;;;;;;5040030;28;20207;-80
2022/01/14 04:10:22;;;;;;;25.05;18.30;;;0.30;99.90;;;;;;5039961;28;20226;-81
2022/01/14 04:12:55;;;;;;;23.33;17.00;;;0.30;99.90;;;;;;5039011;28;20199;-80
2022/01/14 04:15:41;;;;;;;21.70;16.75;;;0.30;99.90;;;;;;5039905;28;20241;-80
2022/01/14 04:18:10;;;;;;;21.50;15.57;;;0.20;99.90;;;;;;5039537;28;20206;-80
2022/01/14 04:20:38;;;;;;;24.58;16.70;;;0.20;99.90;;;;;;5039092;28;20578;-80
2022/01/14 04:23:06;;;;;;;25.00;19.55;;;0.20;99.90;;;;;;5039555;28;20254;-80
2022/01/14 04:25:33;;;;;;;24.70;19.25;;;0.20;99.90;;;;;;5039838;28;20230;-80
2022/01/14 04:28:01;;;;;;;19.80;17.27;;;0.20;99.90;;;;;;5037864;28;20213;-80
2022/01/14 04:30:29;;;;;;;23.92;15.70;;;0.30;99.90;;;;;;5035632;28;20230;-80
2022/01/14 04:32:56;;;;;;;25.55;18.05;;;0.20;99.90;;;;;;5035811;28;20233;-80
2022/01/14 04:35:23;;;;;;;17.20;15.40;;;0.20;99.90;;;;;;5035704;28;20235;-80
2022/01/14 04:37:50;;;;;;;21.92;16.33;;;0.20;99.90;;;;;;5036015;28;20214;-80
2022/01/14 04:40:17;;;;;;;18.85;17.05;;;0.20;99.90;;;;;;5035441;28;20217;-80
2022/01/14 04:42:44;;;;;;;16.98;14.82;;;0.30;99.90;;;;;;5035632;28;20217;-80
2022/01/14 04:45:15;;;;;;;17.80;15.82;;;0.30;99.90;;;;;;5035383;28;20237;-80
2022/01/14 04:47:45;;;;;;;27.10;17.60;;;0.30;99.90;;;;;;5028123;28;20230;-79
2022/01/14 04:50:14;;;;;;;22.65;16.52;;;0.30;99.90;;;;;;5035200;28;20218;-80
2022/01/14 04:52:42;;;;;;;23.73;17.38;;;0.30;99.90;;;;;;5035252;28;20202;-80
2022/01/14 04:55:11;;;;;;;20.33;15.10;;;0.20;99.90;;;;;;5035676;28;20226;-79
2022/01/14 04:57:38;;;;;;;17.85;16.02;;;0.30;99.90;;;;;;5035792;28;20203;-81
2022/01/14 05:00:08;;;;;;;22.10;14.73;;;0.20;99.90;;;;;;5035529;28;20211;-80
2022/01/14 05:02:35;;;;;;;19.48;14.35;;;0.20;99.90;;;;;;5035888;28;20581;-82
2022/01/14 05:05:04;;;;;;;19.55;15.48;;;0.20;99.90;;;;;;5015925;28;20230;-82
2022/01/14 05:07:31;;;;;;;25.50;16.08;;;0.20;99.90;;;;;;5019261;28;20659;-80
2022/01/14 05:10:14;;;;;;;23.92;15.55;;;0.20;99.90;;;;;;5035379;28;20207;-80
2022/01/14 05:12:41;;;;;;;25.42;15.93;;;0.20;99.90;;;;;;5035447;28;20195;-80
2022/01/14 05:15:09;;;;;;;20.63;16.33;;;0.20;99.90;;;;;;5035113;28;20234;-80
2022/01/14 05:17:36;;;;;;;20.30;15.98;;;0.20;99.90;;;;;;5034797;28;20202;-80
2022/01/14 05:20:06;;;;;;;20.90;16.23;;;0.20;99.90;;;;;;5035462;28;20202;-80
2022/01/14 05:22:33;;;;;;;22.30;16.63;;;0.20;99.90;;;;;;5035282;28;20199;-80
2022/01/14 05:24:59;;;;;;;17.13;14.48;;;0.30;99.90;;;;;;5034659;28;20710;-80
2022/01/14 05:27:26;;;;;;;22.25;15.55;;;0.30;99.90;;;;;;5035157;28;20202;-80
2022/01/14 05:29:53;;;;;;;20.73;16.30;;;0.30;99.90;;;;;;5035514;28;20202;-82
2022/01/14 05:32:21;;;;;;;20.30;16.75;;;0.30;99.90;;;;;;5035548;28;20237;-82
2022/01/14 05:34:48;;;;;;;20.73;16.60;;;0.30;99.90;;;;;;5035100;28;20293;-80
2022/01/14 05:37:16;;;;;;;19.80;16.52;;;0.30;99.90;;;;;;5035146;28;20209;-80
2022/01/14 05:39:43;;;;;;;27.85;15.20;;;0.30;99.90;;;;;;5034866;28;20206;-80
2022/01/14 05:42:10;;;;;;;22.40;17.40;;;0.30;99.90;;;;;;5035060;28;20245;-80
2022/01/14 05:44:38;;;;;;;18.35;14.25;;;0.40;99.90;;;;;;5038885;28;20217;-80
2022/01/14 05:47:05;;;;;;;23.90;15.40;;;0.40;99.90;;;;;;5038352;28;20217;-79
2022/01/14 05:49:32;;;;;;;15.80;13.88;;;0.40;99.90;;;;;;5037269;28;20213;-80
2022/01/14 05:51:59;;;;;;;15.15;13.18;;;0.40;99.90;;;;;;5034865;28;20226;-80
2022/01/14 05:54:28;;;;;;;18.85;14.10;;;0.40;99.90;;;;;;5034924;28;20214;-80
2022/01/14 05:56:55;;;;;;;20.90;14.73;;;0.40;99.90;;;;;;5036067;28;20218;-79
2022/01/14 05:59:21;;;;;;;15.68;13.35;;;0.40;99.90;;;;;;5037440;28;20203;-81
2022/01/14 06:01:48;;;;;;;18.20;14.07;;;0.40;99.90;;;;;;5038910;28;20205;-80
2022/01/14 06:04:15;;;;;;;16.83;15.18;;;0.40;99.90;;;;;;5040213;28;20198;-79
2022/01/14 06:06:41;;;;;;;17.60;15.10;;;0.40;99.90;;;;;;5036544;28;20238;-81
2022/01/14 06:09:08;;;;;;;26.27;14.63;;;0.40;99.90;;;;;;5035293;28;20574;-80
2022/01/14 06:11:36;;;;;;;18.77;14.75;;;0.50;99.90;;;;;;5036350;28;20214;-79
2022/01/14 06:14:03;;;;;;;17.05;14.63;;;0.50;99.90;;;;;;5038678;28;20253;-79
2022/01/14 06:16:30;;;;;;;23.25;17.95;;;0.50;99.90;;;;;;5037528;28;20231;-81
2022/01/14 06:18:57;;;;;;;21.17;17.33;;;0.40;99.90;;;;;;5035607;28;20232;-79
2022/01/14 06:21:23;;;;;;;24.35;16.85;;;0.40;99.90;;;;;;5035104;28;20226;-80
2022/01/14 06:23:50;;;;;;;18.80;16.85;;;0.30;99.90;;;;;;5034534;28;20206;-81
2022/01/14 06:26:17;;;;;;;25.27;19.60;;;0.30;99.90;;;;;;5034145;28;20229;-80
2022/01/14 06:28:46;;;;;;;24.55;18.92;;;0.20;99.90;;;;;;5033952;28;20320;-80
2022/01/14 06:31:13;;;;;;;24.88;18.13;;;0.10;99.90;;;;;;5033320;28;20222;-80
2022/01/14 06:33:41;;;;;;;21.80;17.75;;;0.10;99.90;;;;;;5033655;28;20206;-80
2022/01/14 06:36:08;;;;;;;31.75;18.80;;;0.10;99.90;;;;;;5034180;28;20227;-80
2022/01/14 06:38:35;;;;;;;23.58;17.58;;;0.00;99.90;;;;;;5033484;28;20594;-81
2022/01/14 06:41:02;;;;;;;22.02;16.10;;;0.00;99.90;;;;;;5033519;28;20203;-80
2022/01/14 06:43:28;;;;;;;22.08;17.85;;;0.00;99.90;;;;;;5033551;28;20244;-81
2022/01/14 06:45:56;;;;;;;23.85;17.50;;;0.00;99.90;;;;;;5033101;28;20229;-80
2022/01/14 06:48:23;;;;;;;24.42;19.05;;;0.00;99.90;;;;;;5033530;28;20203;-80
2022/01/14 06:50:50;;;;;;;28.45;19.48;;;0.00;99.90;;;;;;5033252;28;20233;-81
2022/01/14 06:53:17;;;;;;;24.90;19.15;;;0.00;99.90;;;;;;5033540;28;20214;-80
2022/01/14 06:55:44;;;;;;;22.98;18.73;;;0.00;99.90;;;;;;5033449;28;20222;-80
2022/01/14 06:58:10;;;;;;;21.38;16.50;;;0.00;99.90;;;;;;5033177;28;20577;-80
2022/01/14 07:00:37;;;;;;;20.88;17.50;;;-0.10;99.90;;;;;;5032821;28;20566;-80
2022/01/14 07:03:05;;;;;;;21.08;16.52;;;0.00;99.90;;;;;;5033474;28;20588;-80
2022/01/14 07:05:32;;;;;;;22.73;17.75;;;0.00;99.90;;;;;;5035578;28;20241;-81
2022/01/14 07:07:59;;;;;;;24.30;18.75;;;0.00;99.90;;;;;;5038356;28;20225;-81
2022/01/14 07:10:26;;;;;;;19.42;16.65;;;0.00;99.90;;;;;;5037281;28;20203;-80
2022/01/14 07:12:53;;;;;;;23.90;19.20;;;0.00;99.90;;;;;;5019561;28;20222;-79
2022/01/14 07:15:20;;;;;;;21.23;17.23;;;0.10;99.90;;;;;;5045091;23;20262;-80
2022/01/14 07:17:47;;;;;;;23.13;17.23;;;0.10;99.90;;;;;;5002122;28;20600;-81
2022/01/14 07:20:18;;;;;;;18.58;16.35;;;0.10;99.90;;;;;;4999634;28;20199;-81
2022/01/14 07:22:47;;;;;;;20.92;15.40;;;0.20;99.90;;;;;;4998685;28;20206;-81
2022/01/14 07:25:14;;;;;;;21.10;17.33;;;0.30;99.90;;;;;;5000537;28;20214;-81
2022/01/14 07:27:41;;;;;;;17.38;15.23;;;0.30;99.90;;;;;;5019231;28;20210;-81
2022/01/14 07:30:09;;;;;;;21.60;17.40;;;0.30;99.90;;;;;;5013302;28;20207;-78
2022/01/14 07:32:36;;;;;;;25.83;19.23;;;0.30;99.90;;;;;;5010002;28;20223;-79
2022/01/14 07:35:03;;;;;;;27.58;19.38;;;0.20;99.90;;;;;;5014485;28;20199;-81
2022/01/14 07:37:31;;;;;;;21.33;16.45;;;0.30;99.90;;;;;;5009070;28;20203;-79
2022/01/14 07:39:58;;;;;;;27.85;18.27;;;0.40;99.90;;;;;;5009780;28;20233;-79
2022/01/14 07:42:25;;;;;;;22.98;18.73;;;0.50;99.90;;;;;;5008991;28;20195;-81
2022/01/14 07:44:51;;;;;;;19.92;17.23;;;0.60;99.90;;;;;;5011518;28;20215;-81
2022/01/14 07:47:18;;;;;;;26.90;19.23;;;0.70;99.90;;;;;;5009713;28;20232;-80
2022/01/14 07:49:46;;;;;;;24.35;17.55;;;0.90;99.90;;;;;;5008444;28;20204;-80
2022/01/14 07:52:13;;;;;;;25.92;18.08;;;0.90;99.90;;;;;;5009571;28;20219;-81
2022/01/14 07:54:41;;;;;;;22.35;18.02;;;0.80;99.90;;;;;;5011408;28;20578;-81
2022/01/14 07:57:08;;;;;;;24.33;17.48;;;0.80;99.90;;;;;;5010306;28;20233;-81
2022/01/14 07:59:37;;;;;;;21.80;16.33;;;0.90;99.90;;;;;;5014803;28;20200;-81
2022/01/14 08:02:05;;;;;;;22.23;18.85;;;0.90;99.90;;;;;;5017854;28;20195;-81
2022/01/14 08:04:34;;;;;;;18.85;16.85;;;0.90;99.90;;;;;;5009190;28;20195;-80
2022/01/14 08:07:08;;;;;;;16.77;15.13;;;1.00;99.90;;;;;;5000770;28;20247;-80
2022/01/14 08:09:36;;;;;;;21.33;17.70;;;1.00;99.90;;;;;;5002870;28;20199;-80
2022/01/14 08:12:05;;;;;;;24.67;18.88;;;1.00;99.90;;;;;;5019145;28;20223;-79
2022/01/14 08:14:32;;;;;;;19.40;15.63;;;1.10;99.90;;;;;;5014672;28;20208;-80
2022/01/14 08:16:59;;;;;;;23.50;17.05;;;1.10;99.90;;;;;;4996384;28;20251;-81
2022/01/14 08:19:26;;;;;;;20.33;16.60;;;1.10;99.90;;;;;;4997754;28;20843;-80
2022/01/14 08:21:53;;;;;;;24.00;15.30;;;1.20;99.90;;;;;;4997525;28;20215;-80
2022/01/14 08:24:20;;;;;;;24.33;17.95;;;1.20;99.90;;;;;;4999674;28;20208;-80
2022/01/14 08:26:46;;;;;;;19.42;16.40;;;1.20;99.90;;;;;;5244658;23;20243;-81
2022/01/14 08:29:50;;;;;;;15.05;13.40;;;1.30;99.90;;;;;;5012013;28;20220;-86
2022/01/14 08:32:17;;;;;;;14.55;13.05;;;1.30;99.90;;;;;;4976124;28;20242;-80
2022/01/14 08:34:44;;;;;;;17.20;13.40;;;1.40;99.90;;;;;;5007218;28;20210;-83
2022/01/14 08:39:39;;;;;;;21.10;16.70;;;1.40;99.90;;;;;;5036267;28;20270;-80
2022/01/14 08:42:08;;;;;;;24.35;18.13;;;1.50;99.90;;;;;;5037368;28;20207;-80
2022/01/14 08:44:37;;;;;;;22.77;17.10;;;1.60;99.90;;;;;;5037246;28;20620;-80
2022/01/14 08:47:05;;;;;;;25.10;16.55;;;1.60;99.90;;;;;;5036551;28;20278;-79
2022/01/14 08:49:33;;;;;;;20.98;16.52;;;1.70;99.90;;;;;;5037851;28;20207;-80
2022/01/14 08:51:59;;;;;;;18.08;16.23;;;1.80;99.90;;;;;;5036249;28;20223;-81
2022/01/14 08:54:26;;;;;;;19.67;17.52;;;1.80;99.90;;;;;;5036538;28;20299;-79
2022/01/14 08:56:53;;;;;;;21.48;17.25;;;1.90;99.90;;;;;;5037429;28;20229;-79
2022/01/14 08:59:20;;;;;;;29.33;18.75;;;2.00;99.90;;;;;;5037813;28;20206;-80
2022/01/14 09:01:48;;;;;;;21.42;17.65;;;2.00;99.90;;;;;;5035449;28;20203;-82
2022/01/14 09:04:16;;;;;;;21.67;17.45;;;2.00;99.90;;;;;;5036569;28;20214;-82
2022/01/14 09:06:43;;;;;;;26.95;18.42;;;2.00;99.90;;;;;;5038398;23;20240;-79
2022/01/14 09:09:10;;;;;;;26.15;19.55;;;2.10;99.90;;;;;;5017280;28;20219;-79
2022/01/14 09:11:37;;;;;;;22.77;19.25;;;2.10;99.90;;;;;;5016077;28;20251;-79
2022/01/14 09:14:04;;;;;;;23.13;17.80;;;2.20;99.90;;;;;;5014954;28;20215;-80
2022/01/14 09:16:30;;;;;;;22.33;17.25;;;2.20;99.90;;;;;;5035490;28;20232;-80
2022/01/14 09:18:58;;;;;;;27.42;20.08;;;2.20;99.90;;;;;;5035810;28;20220;-80
2022/01/14 09:21:26;;;;;;;19.42;17.63;;;2.30;99.90;;;;;;5019515;28;20580;-80
2022/01/14 09:23:57;;;;;;;23.55;19.75;;;2.40;99.90;;;;;;5028310;28;20205;-79
2022/01/14 09:26:24;;;;;;;21.33;17.08;;;2.50;99.90;;;;;;5037708;28;20233;-78
2022/01/14 09:28:50;;;;;;;18.83;17.02;;;2.60;99.90;;;;;;5037293;28;20208;-80
2022/01/14 09:31:17;;;;;;;20.05;17.77;;;2.70;99.90;;;;;;5028755;28;20210;-79
2022/01/14 09:33:44;;;;;;;21.75;18.75;;;2.80;99.90;;;;;;5036597;28;20196;-79
2022/01/14 09:36:13;;;;;;;19.15;17.15;;;2.90;99.90;;;;;;5036018;28;20740;-80
2022/01/14 09:38:39;;;;;;;18.75;16.52;;;3.00;99.90;;;;;;5036581;28;20205;-80
2022/01/14 09:41:08;;;;;;;18.67;15.15;;;3.10;99.90;;;;;;5036080;28;20214;-80
2022/01/14 09:43:38;;;;;;;21.20;16.13;;;3.20;99.90;;;;;;5037201;28;20620;-79
2022/01/14 09:50:04;;;;;;;17.40;15.80;;;3.30;99.90;;;;;;4842979;29;20222;-80
2022/01/14 09:53:32;;;;;;;18.52;16.15;;;3.40;99.90;;;;;;4764594;30;20299;-85
2022/01/14 09:59:18;;;;;;;19.60;17.50;;;3.60;99.90;;;;;;4757028;29;20231;-79
2022/01/14 10:01:47;;;;;;;26.85;19.08;;;3.80;99.90;;;;;;4827237;29;20782;-81
2022/01/14 10:04:16;;;;;;;18.33;16.33;;;3.80;99.90;;;;;;4947927;28;20206;-79
2022/01/14 10:06:45;;;;;;;22.50;20.05;;;4.00;99.90;;;;;;5017754;28;20227;-81
2022/01/14 10:09:16;;;;;;;20.25;18.30;;;4.10;99.90;;;;;;5017248;28;20203;-83
2022/01/14 10:11:58;;;;;;;20.08;17.80;;;4.20;99.90;;;;;;5032530;28;20233;-86
2022/01/14 10:14:34;;;;;;;22.13;16.95;;;4.30;99.90;;;;;;5003258;28;20214;-85
2022/01/14 10:17:02;;;;;;;24.05;17.75;;;4.50;99.90;;;;;;5163452;23;20247;-79
2022/01/14 10:19:30;;;;;;;18.60;16.10;;;4.60;99.90;;;;;;4996679;28;20208;-80
2022/01/14 10:21:58;;;;;;;20.75;16.55;;;4.70;99.90;;;;;;4996116;28;20203;-80
2022/01/14 10:24:29;;;;;;;17.55;15.05;;;4.90;99.90;;;;;;4982692;28;20215;-79
2022/01/14 10:26:58;;;;;;;20.33;15.07;;;5.00;99.90;;;;;;4985107;28;20711;-79
2022/01/14 10:29:33;;;;;;;19.95;14.60;;;5.10;99.90;;;;;;4995614;28;20214;-80
2022/01/14 10:32:00;;;;;;;21.80;14.30;;;5.30;99.90;;;;;;4995941;28;20569;-81
2022/01/14 10:34:28;;;;;;;20.92;15.30;;;5.40;99.90;;;;;;4994750;28;20207;-81
2022/01/14 10:37:13;;;;;;;18.17;14.43;;;5.50;99.90;;;;;;4993617;28;20235;-83
2022/01/14 10:39:46;;;;;;;17.75;15.80;;;5.60;99.90;;;;;;4973989;28;20212;-81
2022/01/14 10:42:24;;;;;;;20.45;15.35;;;5.80;99.90;;;;;;4979344;28;20250;-82
2022/01/14 10:44:53;;;;;;;21.77;16.30;;;5.90;99.90;;;;;;4993176;28;20208;-81
2022/01/14 10:47:29;;;;;;;16.92;14.68;;;6.00;99.90;;;;;;4995240;28;20208;-88
2022/01/14 10:49:58;;;;;;;17.25;15.48;;;6.10;99.90;;;;;;4985380;28;20223;-85
2022/01/14 10:52:27;;;;;;;23.67;16.13;;;6.30;99.90;;;;;;4997354;28;20687;-82
2022/01/14 10:55:24;;;;;;;18.80;16.13;;;6.50;99.90;;;;;;5000857;28;20207;-85
2022/01/14 11:03:53;;;;;;;16.83;13.55;;;8.30;98.60;;;;;;4977551;28;20219;-81
2022/01/14 11:06:22;;;;;;;15.88;14.15;;;9.30;96.90;;;;;;4996843;28;20730;-81
2022/01/14 11:08:55;;;;;;;14.37;12.80;;;10.20;96.00;;;;;;4995862;28;20574;-80
2022/01/14 11:11:22;;;;;;;13.97;10.90;;;11.20;95.00;;;;;;4995681;28;20508;-82
2022/01/14 11:13:49;;;;;;;15.13;13.17;;;12.10;91.40;;;;;;4995304;28;20537;-82
2022/01/14 11:16:16;;;;;;;13.20;11.80;;;12.80;89.00;;;;;;4995357;28;20470;-81
2022/01/14 11:18:45;;;;;;;13.87;12.07;;;13.50;85.00;;;;;;4996681;28;20461;-81
2022/01/14 11:23:58;;;;;;;16.37;14.97;;;14.90;79.10;;;;;;4994383;28;20464;-82
2022/01/14 11:26:30;;;;;;;13.90;12.40;;;15.60;75.30;;;;;;4994495;28;20470;-82
2022/01/14 11:29:05;;;;;;;13.37;12.03;;;16.40;73.70;;;;;;4995429;28;20457;-82
2022/01/14 11:31:33;;;;;;;16.23;13.47;;;17.30;70.00;;;;;;4995474;28;20970;-81
2022/01/14 11:34:02;;;;;;;17.07;13.07;;;17.90;66.10;;;;;;4994705;28;20551;-81
2022/01/14 11:37:06;;;;;;;16.97;13.00;;;18.60;62.90;;;;;;5002784;23;21030;-79
2022/01/14 11:39:36;;;;;;;15.30;13.73;;;19.20;59.50;;;;;;5014099;28;21022;-79
2022/01/14 11:42:05;;;;;;;16.93;13.50;;;20.00;57.90;;;;;;5016978;28;20449;-80
2022/01/14 11:44:55;;;;;;;13.73;12.60;;;20.50;56.50;;;;;;4999153;28;20983;-79
2022/01/14 11:47:59;;;;;;;14.33;12.90;;;21.20;54.40;;;;;;4978137;28;20476;-80
2022/01/14 11:50:51;;;;;;;12.70;11.70;;;21.80;52.30;;;;;;4993046;28;20486;-82
2022/01/14 11:53:37;;;;;;;17.53;12.37;;;21.90;50.30;;;;;;4986587;28;20448;-81
2022/01/14 11:56:08;;;;;;;13.63;12.33;;;22.00;50.00;;;;;;4995190;28;20471;-80
2022/01/14 11:58:35;;;;;;;13.70;12.37;;;22.20;49.60;;;;;;4995869;28;20454;-80
2022/01/14 12:01:02;;;;;;;14.10;11.30;;;22.40;48.80;;;;;;4993224;28;20461;-80
2022/01/14 12:03:32;;;;;;;10.83;9.73;;;22.30;47.70;;;;;;4994005;28;20527;-79
2022/01/14 12:06:02;;;;;;;11.87;10.83;;;22.10;47.20;;;;;;4994917;28;21015;-80
2022/01/14 12:08:30;;;;;;;12.30;11.30;;;22.00;48.20;;;;;;4992915;28;20845;-80
2022/01/14 12:11:20;;;;;;;11.40;10.20;;;21.70;48.20;;;;;;4992385;28;20461;-80
2022/01/14 12:13:58;;;;;;;13.03;11.73;;;21.30;47.70;;;;;;4996396;28;20494;-83
2022/01/14 12:19:21;;;;;;;13.07;11.77;;;21.10;47.80;;;;;;4996457;28;20446;-81
2022/01/14 12:21:59;;;;;;;14.87;13.63;;;21.30;48.10;;;;;;5001771;28;21164;-81
2022/01/14 12:24:36;;;;;;;14.17;12.40;;;21.20;47.80;;;;;;5001282;28;20493;-81
2022/01/14 12:27:36;;;;;;;14.20;13.00;;;21.20;48.10;;;;;;5002086;28;20474;-81
2022/01/14 12:30:12;;;;;;;13.27;11.90;;;21.30;48.50;;;;;;5002181;28;20467;-81
2022/01/14 12:32:41;;;;;;;13.90;12.50;;;21.90;47.90;;;;;;5001867;28;20452;-80
2022/01/14 12:35:12;;;;;;;13.63;12.13;;;22.40;47.70;;;;;;5001739;28;20484;-81
2022/01/14 12:37:40;;;;;;;13.67;12.40;;;22.70;46.30;;;;;;5001608;28;20862;-81
2022/01/14 12:40:11;;;;;;;13.77;12.33;;;22.50;45.50;;;;;;5001009;28;20480;-80
2022/01/14 12:42:38;;;;;;;13.50;12.17;;;22.80;46.40;;;;;;5001476;28;20511;-80
2022/01/14 12:45:10;;;;;;;13.47;12.07;;;23.20;45.90;;;;;;5009898;28;20457;-79
2022/01/14 12:47:41;;;;;;;13.00;11.70;;;23.30;44.90;;;;;;5014174;28;20454;-79
2022/01/14 12:50:11;;;;;;;14.03;12.50;;;23.40;45.10;;;;;;5013425;28;20461;-79
2022/01/14 12:52:48;;;;;;;12.47;11.43;;;23.60;44.40;;;;;;5013624;28;20489;-79
2022/01/14 12:55:16;;;;;;;14.13;13.00;;;23.60;43.90;;;;;;5013846;28;20460;-81
2022/01/14 12:57:43;;;;;;;13.10;11.83;;;23.50;43.80;;;;;;5013229;28;20454;-78
2022/01/14 13:00:13;;;;;;;12.90;11.90;;;23.30;44.00;;;;;;5009035;28;20944;-81
2022/01/14 13:02:41;;;;;;;14.80;13.27;;;23.00;43.90;;;;;;4999521;28;20507;-79
2022/01/14 13:05:12;;;;;;;14.77;13.57;;;22.70;44.70;;;;;;4998293;28;20512;-83
2022/01/14 13:07:39;;;;;;;13.50;12.07;;;22.90;44.50;;;;;;4996530;28;20466;-82
2022/01/14 13:10:08;;;;;;;13.73;12.40;;;23.20;44.70;;;;;;4996701;28;20454;-82
2022/01/14 13:12:39;;;;;;;13.00;11.80;;;23.40;44.20;;;;;;4996816;28;20454;-79
2022/01/14 13:15:07;;;;;;;13.37;11.80;;;23.50;44.00;;;;;;4996196;28;20461;-81
2022/01/14 13:17:38;;;;;;;12.77;11.77;;;23.20;43.90;;;;;;5672876;23;20437;-83
2022/01/14 13:20:08;;;;;;;11.83;10.57;;;22.80;43.70;;;;;;5008203;28;20446;-84
2022/01/14 13:22:51;;;;;;;14.23;10.70;;;22.30;44.10;;;;;;5017952;28;20442;-85
2022/01/14 13:25:20;;;;;;;12.53;10.13;;;21.50;45.10;;;;;;5018396;28;20450;-85